Terminal Aerodrome Forecast
Issued by NWS Pittsburgh, PA

Home | Current Version | Previous Version | Text Only | Print | Product List | Glossary On
Versions: 1 2 3 4 5 6 7 8 9 10 11 12 13 14 15 16 17 18 19 20 21 22 23 24 25 26 27 28 29 30 31 32 33
000
FTUS41 KPBZ 021100
TAFPIT
TAF
KPIT 021129Z 0212/0318 22007KT P6SM SCT015 BKN025
     FM021400 22008KT 4SM -SHRA BKN035
      TEMPO 0215/0219 2SM -TSRA BKN025CB
     FM022200 24008KT P6SM BKN050
     FM030900 26003KT 4SM BR SCT250=

USA.gov is the U.S. government's official web portal to all federal, state and local government web resources and services.